Latest Weather Observations for Toowoomba

IDQ60901

Issued at 8:01 pm EST Thursday 30 June 2022 (issued every 10 minutes, with the page automatically refreshed every 10 minutes)

About weather observations | Map of Brisbane area stations | Latest observations for Brisbane area | Other Formats
Station Details ID: 041529 Name: TOOWOOMBA AIRPORT Lat: -27.54 Lon: 151.91 Height: 640.9 m
Data from the previous 72 hours. | See also: Recent months at Toowoomba
Date/Time
EST
Temp
°C
App
Temp
°C
Dew
Point
°C
Rel
Hum
%
Delta-T
°C
Wind Press
QNH
hPa
Press
MSL
hPa
Rain since
9am
mm
Dir  Spd
km/h
Gust
km/h
Spd
kts
Gust
kts
30/08:00pm 13.5 10.4 11.6 88 1.0 E 19 22 10 12 1024.1 1023.4 0.0
30/07:30pm 13.6 10.8 11.5 87 1.2 E 17 20 9 11 1024.1 1023.4 0.0
30/07:00pm 13.7 11.2 10.9 83 1.5 E 15 19 8 10 1023.9 1023.2 0.0
30/06:30pm 13.9 10.9 10.7 81 1.7 E 17 22 9 12 1023.0 1022.4 0.0
30/06:00pm 14.0 11.0 10.6 80 1.8 E 17 20 9 11 1023.0 1022.4 0.0
30/05:30pm 14.1 11.2 10.9 81 1.7 ESE 17 20 9 11 1022.5 1021.8 0.0
30/05:00pm 14.4 11.8 10.8 79 2.0 ESE 15 17 8 9 1022.4 1021.7 0.0
30/04:30pm 15.0 12.3 10.4 74 2.5 E 15 20 8 11 1022.2 1021.5 0.0
30/04:00pm 15.6 12.6 10.6 72 2.7 E 17 19 9 10 1021.9 1021.2 0.0
30/03:30pm 16.5 13.7 10.1 66 3.5 ENE 15 19 8 10 1021.9 1021.2 0.0
30/03:00pm 16.7 14.7 10.3 66 3.5 ENE 11 15 6 8 1022.4 1021.7 0.0
30/02:30pm 16.9 15.3 10.1 64 3.7 ESE 9 15 5 8 1022.7 1022.0 0.0
30/02:00pm 17.0 15.1 7.6 54 4.9 W 7 11 4 6 1023.2 1022.6 0.0
30/01:30pm 17.5 15.8 8.4 55 4.8 WSW 7 13 4 7 1023.4 1022.8 0.0
30/01:00pm 17.2 14.9 7.5 53 5.0 W 9 15 5 8 1023.9 1023.2 0.0
30/12:30pm 16.9 14.7 7.8 55 4.7 W 9 11 5 6 1024.0 1023.3 0.0
30/12:00pm 17.0 15.0 8.7 58 4.4 NW 9 13 5 7 1024.4 1023.8 0.0
30/11:30am 16.9 14.9 8.8 59 4.3 NW 9 15 5 8 1024.9 1024.3 0.0
30/11:00am 16.0 14.3 8.5 61 3.9 WSW 7 15 4 8 1024.9 1024.3 0.0
30/10:30am 16.2 15.2 10.3 68 3.2 ESE 6 11 3 6 1025.1 1024.5 0.0
30/10:00am 15.6 13.9 9.7 68 3.2 E 9 11 5 6 1025.3 1024.6 0.0
30/09:30am 14.8 13.3 10.6 76 2.3 E 9 13 5 7 1025.8 1025.2 0.0
30/09:00am 13.5 12.1 10.9 84 1.4 E 9 13 5 7 1025.7 1025.1 0.0
30/08:30am 12.4 10.6 11.0 91 0.8 E 11 13 6 7 1025.1 1024.5 0.0
30/08:00am 12.1 10.5 11.6 97 0.3 E 11 13 6 7 1024.6 1024.0 0.0
30/07:30am 9.3 7.1 9.2 99 0.1 E 11 13 6 7 1024.6 1024.0 0.0
30/07:00am 8.6 5.8 8.6 100 0.0 E 13 15 7 8 1024.3 1023.7 0.0
30/06:30am 9.1 7.2 9.1 100 0.0 ESE 9 11 5 6 1024.1 1023.4 0.0
30/06:00am 9.5 7.3 9.4 99 0.1 E 11 15 6 8 1023.6 1022.9 0.0
30/05:30am 9.6 7.4 9.5 99 0.1 E 11 13 6 7 1023.2 1022.6 0.0
30/05:00am 9.5 7.3 9.4 99 0.1 E 11 13 6 7 1023.3 1022.7 0.0
30/04:30am 9.9 7.4 9.8 99 0.1 E 13 15 7 8 1023.3 1022.7 0.0
30/04:00am 9.8 7.2 9.3 97 0.3 E 13 15 7 8 1023.2 1022.6 0.0
30/03:30am 10.1 7.5 9.5 96 0.3 E 13 17 7 9 1023.6 1022.9 0.0
30/03:00am 9.9 7.4 9.6 98 0.2 E 13 17 7 9 1023.2 1022.6 0.0
30/02:30am 10.3 6.4 9.5 95 0.4 E 20 24 11 13 1022.9 1022.3 0.0
30/02:00am 10.4 7.1 9.6 95 0.4 E 17 20 9 11 1023.6 1022.9 0.0
30/01:30am 10.6 7.3 9.7 94 0.5 E 17 20 9 11 1024.3 1023.7 0.0
30/01:00am 10.6 6.3 9.4 92 0.6 E 22 26 12 14 1024.2 1023.6 0.0
30/12:30am 10.3 6.5 9.7 96 0.3 E 20 24 11 13 1024.1 1023.4 0.0
30/12:00am 10.3 6.2 10.0 98 0.2 E 22 26 12 14 1024.3 1023.7 0.0
 
Date/Time
EST
Temp
°C
App
Temp
°C
Dew
Point
°C
Rel
Hum
%
Delta-T
°C
Wind Press
QNH
hPa
Press
MSL
hPa
Rain since
9am
mm
Dir  Spd
km/h
Gust
km/h
Spd
kts
Gust
kts
29/11:30pm 10.0 5.8 9.9 99 0.1 E 22 26 12 14 1024.3 1023.7 0.0
29/11:00pm 9.8 6.0 9.7 99 0.1 E 20 26 11 14 1024.5 1023.9 0.0
29/10:30pm 10.0 5.8 9.9 99 0.1 E 22 28 12 15 1024.5 1023.9 0.0
29/10:00pm 9.9 7.8 9.8 99 0.1 E 11 13 6 7 1025.0 1024.4 0.0
29/09:30pm 10.1 6.9 10.0 99 0.1 E 17 20 9 11 1025.3 1024.6 0.0
29/09:00pm 10.2 7.4 10.1 99 0.1 E 15 19 8 10 1025.1 1024.5 0.0
29/08:30pm 10.4 7.7 10.2 99 0.1 E 15 19 8 10 1024.9 1024.3 0.0
29/08:00pm 10.4 8.0 9.9 97 0.3 ESE 13 19 7 10 1024.7 1024.1 0.0
29/07:30pm 10.4 7.2 9.8 96 0.3 E 17 20 9 11 1024.3 1023.7 0.0
29/07:00pm 10.5 7.6 9.6 94 0.5 E 15 20 8 11 1024.3 1023.7 0.0
29/06:30pm 10.6 7.7 9.5 93 0.6 E 15 22 8 12 1024.1 1023.4 0.0
29/06:00pm 11.4 9.5 9.1 86 1.2 E 9 15 5 8 1024.2 1023.6 0.0
29/05:30pm 11.5 8.9 9.2 86 1.2 E 13 17 7 9 1023.9 1023.2 0.0
29/05:00pm 11.8 9.8 8.6 81 1.6 ENE 9 13 5 7 1024.0 1023.3 0.0
29/04:30pm 12.0 9.2 8.5 79 1.8 E 13 15 7 8 1024.3 1023.7 0.0
29/04:00pm 12.4 9.2 8.5 77 2.0 E 15 20 8 11 1024.3 1023.7 0.0
29/03:30pm 12.6 9.7 8.3 75 2.2 E 13 19 7 10 1024.6 1024.0 0.0
29/03:00pm 12.9 9.6 8.0 72 2.5 ESE 15 19 8 10 1024.5 1023.9 0.0
29/02:30pm 12.9 9.5 7.8 71 2.6 ESE 15 22 8 12 1024.5 1023.9 0.0
29/02:00pm 13.3 8.3 6.4 63 3.4 ESE 22 28 12 15 1024.8 1024.2 0.0
29/01:30pm 14.1 9.7 6.5 60 3.8 E 19 26 10 14 1024.8 1024.2 0.0
29/01:00pm 13.3 9.8 7.3 67 3.0 ENE 15 19 8 10 1025.5 1024.8 0.0
29/12:30pm 13.0 8.6 7.5 69 2.8 E 20 28 11 15 1025.9 1025.3 0.0
29/12:00pm 12.1 8.4 9.3 83 1.5 E 19 26 10 14 1026.1 1025.5 0.0
29/11:50am 11.6 8.4 9.9 89 0.9 E 17 20 9 11 1026.0 1025.4 0.0
29/11:36am 10.8 7.8 10.6 99 0.1 E 17 24 9 13 1026.4 1025.8 0.0
29/11:30am 10.6 7.2 10.4 99 0.1 E 19 26 10 14 1026.4 1025.8 0.0
29/11:13am 10.6 6.2 10.4 99 0.1 E 24 35 13 19 1026.4 1025.8 0.0
29/11:00am 11.7 8.0 10.1 90 0.8 E 20 30 11 16 1026.2 1025.6 0.0
29/10:45am 11.6 7.3 9.2 85 1.2 E 22 32 12 17 1026.4 1025.8 0.0
29/10:43am 11.7 7.4 9.3 85 1.2 E 22 35 12 19 1026.4 1025.8 0.0
29/10:30am 12.3 8.3 9.1 81 1.7 E 20 28 11 15 1026.4 1025.8 0.0
29/10:00am 12.0 8.0 9.0 82 1.5 ESE 20 28 11 15 1026.5 1025.9 0.0
29/09:30am 11.1 6.9 9.7 91 0.7 ESE 22 28 12 15 1026.3 1025.7 0.0
29/09:18am 11.0 7.7 9.6 91 0.7 ESE 17 30 9 16 1026.2 1025.6 0.0
29/09:00am 10.5 7.4 10.2 98 0.2 ESE 17 26 9 14 1026.2 1025.6 0.0
29/08:51am 10.6 7.5 10.3 98 0.2 ESE 17 22 9 12 1026.0 1025.4 0.0
29/08:30am 10.1 6.9 10.0 99 0.1 E 17 22 9 12 1026.1 1025.5 0.0
29/08:00am 9.5 6.9 9.4 99 0.1 ESE 13 19 7 10 1026.1 1025.5 0.0
29/07:30am 7.5 6.9 7.5 100 0.0 CALM 0 0 0 0 1025.8 1025.2 0.0
29/07:00am 7.3 6.7 7.3 100 0.0 CALM 0 0 0 0 1026.1 1025.5 0.0
29/06:30am 7.1 6.4 7.1 100 0.0 CALM 0 0 0 0 1025.4 1024.7 0.0
29/06:26am 7.0 6.3 6.9 99 0.0 CALM 0 0 0 0 1025.7 1025.1 0.0
29/06:09am 7.4 4.7 7.3 99 0.0 ESE 11 15 6 8 1025.1 1024.5 0.0
29/06:00am 7.4 4.7 7.3 99 0.0 E 11 17 6 9 1025.0 1024.4 0.0
29/05:30am 7.0 3.8 7.0 100 0.0 ESE 13 17 7 9 1024.6 1024.0 0.0
29/05:00am 6.4 2.7 6.4 100 0.0 ESE 15 20 8 11 1024.5 1023.9 0.0
29/04:30am 6.2 3.2 6.2 100 0.0 ESE 11 13 6 7 1024.7 1024.1 0.0
29/04:00am 5.0 2.1 4.9 99 0.0 ESE 9 11 5 6 1025.0 1024.4 0.0
29/03:30am 5.3 4.2 5.3 100 0.0 CALM 0 0 0 0 1025.4 1024.7 0.0
29/03:00am 5.6 4.6 5.5 99 0.0 CALM 0 0 0 0 1025.5 1024.8 0.0
29/02:30am 6.5 5.7 6.4 99 0.0 CALM 0 0 0 0 1025.6 1025.0 0.0
29/02:00am 5.9 4.9 5.5 97 0.2 CALM 0 0 0 0 1025.8 1025.2 0.0
29/01:30am 6.9 6.1 6.5 97 0.2 CALM 0 0 0 0 1025.8 1025.2 0.0
29/01:00am 6.4 5.6 6.3 99 0.0 CALM 0 6 0 3 1025.7 1025.1 0.0
29/12:30am 6.7 4.4 5.8 94 0.4 ESE 7 11 4 6 1025.6 1025.0 0.0
29/12:00am 6.8 4.6 6.1 95 0.3 ESE 7 9 4 5 1025.8 1025.2 0.0
 
Date/Time
EST
Temp
°C
App
Temp
°C
Dew
Point
°C
Rel
Hum
%
Delta-T
°C
Wind Press
QNH
hPa
Press
MSL
hPa
Rain since
9am
mm
Dir  Spd
km/h
Gust
km/h
Spd
kts
Gust
kts
28/11:30pm 6.2 3.2 5.9 98 0.1 ESE 11 11 6 6 1026.0 1025.4 0.0
28/11:00pm 6.2 3.8 5.3 94 0.4 E 7 9 4 5 1026.2 1025.6 0.0
28/10:30pm 6.4 3.7 5.8 96 0.3 ESE 9 11 5 6 1026.3 1025.7 0.0
28/10:00pm 6.9 4.2 5.5 91 0.6 ESE 9 9 5 5 1026.9 1026.3 0.0
28/09:30pm 7.1 4.7 5.4 89 0.8 ESE 7 9 4 5 1026.6 1026.0 0.0
28/09:00pm 7.1 4.4 5.4 89 0.8 E 9 11 5 6 1026.6 1026.0 0.0
28/08:30pm 7.5 4.7 5.1 85 1.1 E 9 13 5 7 1026.7 1026.1 0.0
28/08:00pm 8.1 5.4 5.6 84 1.2 E 9 11 5 6 1026.6 1026.0 0.0
28/07:30pm 7.9 4.6 4.8 81 1.4 E 11 13 6 7 1026.6 1026.0 0.0
28/07:00pm 9.0 6.2 5.2 77 1.8 E 9 11 5 6 1026.4 1025.8 0.0
28/06:30pm 9.0 6.2 5.2 77 1.8 E 9 11 5 6 1026.1 1025.5 0.0
28/06:00pm 9.8 6.2 5.0 72 2.2 E 13 17 7 9 1025.9 1025.3 0.0
28/05:30pm 11.0 6.3 5.1 67 2.8 E 19 24 10 13 1025.6 1025.0 0.0
28/05:00pm 12.0 7.2 5.6 65 3.1 ENE 20 26 11 14 1025.5 1024.8 0.0
28/04:30pm 12.9 7.7 5.3 60 3.7 ENE 22 32 12 17 1025.4 1024.7 0.0
28/04:00pm 13.6 7.9 5.0 56 4.1 ENE 24 32 13 17 1025.0 1024.4 0.0
28/03:30pm 14.2 8.9 5.0 54 4.5 ENE 22 32 12 17 1024.8 1024.2 0.0
28/03:00pm 14.4 9.4 4.7 52 4.7 E 20 30 11 16 1024.9 1024.3 0.0
28/02:30pm 15.0 10.1 5.2 52 4.8 E 20 28 11 15 1025.0 1024.4 0.0
28/02:00pm 14.9 10.1 4.9 51 4.8 E 19 30 10 16 1025.1 1024.5 0.0
28/01:30pm 14.7 9.4 5.0 52 4.7 E 22 30 12 16 1025.4 1024.7 0.0
28/01:00pm 14.8 9.9 5.1 52 4.7 E 20 28 11 15 1025.5 1024.8 0.0
28/12:30pm 14.2 9.2 4.5 52 4.6 ESE 20 37 11 20 1025.8 1025.2 0.0
28/12:00pm 13.8 8.3 4.1 52 4.6 ESE 22 28 12 15 1026.2 1025.6 0.0
28/11:30am 13.6 8.9 3.4 50 4.8 ESE 17 24 9 13 1026.3 1025.7 0.0
28/11:00am 13.1 8.5 3.5 52 4.4 E 17 20 9 11 1026.6 1026.0 0.0
28/10:30am 12.9 9.1 3.8 54 4.3 ESE 13 19 7 10 1026.7 1026.1 0.0
28/10:00am 11.7 7.8 3.2 56 3.9 ESE 13 17 7 9 1027.0 1026.4 0.0
28/09:30am 10.8 6.9 3.4 60 3.4 E 13 17 7 9 1026.9 1026.3 0.0
28/09:00am 10.0 4.7 3.1 62 3.1 ENE 20 24 11 13 1026.5 1025.9 0.0
28/08:30am 9.3 4.5 2.6 63 3.0 E 17 22 9 12 1026.5 1025.9 0.0
28/08:00am 7.7 4.7 4.1 78 1.6 E 9 11 5 6 1026.4 1025.8 0.0
28/07:30am 5.6 2.5 1.5 75 1.7 E 7 7 4 4 1026.2 1025.6 0.0
28/07:00am 5.2 1.8 1.9 79 1.4 ENE 9 11 5 6 1026.1 1025.5 0.0
28/06:30am 3.5 0.4 1.4 86 0.9 ESE 7 9 4 5 1025.8 1025.2 0.0
28/06:00am 5.0 1.8 0.9 75 1.7 ESE 7 11 4 6 1025.4 1024.7 0.0
28/05:30am 5.4 3.6 1.5 76 1.6 CALM 0 0 0 0 1025.1 1024.5 0.0
28/05:00am 5.4 2.6 2.1 79 1.4 ESE 6 7 3 4 1024.8 1024.2 0.0
28/04:30am 5.3 2.3 1.8 78 1.5 E 7 9 4 5 1024.6 1024.0 0.0
28/04:00am 4.9 1.5 1.9 81 1.2 E 9 11 5 6 1024.7 1024.1 0.0
28/03:30am 5.2 1.8 1.9 79 1.4 ESE 9 9 5 5 1024.7 1024.1 0.0
28/03:00am 5.8 2.4 1.7 75 1.7 SE 9 11 5 6 1025.1 1024.5 0.0
28/02:30am 5.9 2.4 1.1 71 2.0 ESE 9 11 5 6 1024.9 1024.3 0.0
28/02:00am 6.8 3.3 1.3 68 2.3 ESE 9 11 5 6 1024.6 1024.0 0.0
28/01:30am 6.6 3.1 1.3 69 2.2 ESE 9 11 5 6 1024.8 1024.2 0.0
28/01:00am 6.6 2.7 0.9 67 2.3 ESE 11 13 6 7 1024.8 1024.2 0.0
28/12:30am 6.5 3.0 1.0 68 2.3 ESE 9 11 5 6 1024.9 1024.3 0.0
28/12:00am 7.3 4.1 0.7 63 2.7 ESE 7 9 4 5 1025.1 1024.5 0.0
 
Date/Time
EST
Temp
°C
App
Temp
°C
Dew
Point
°C
Rel
Hum
%
Delta-T
°C
Wind Press
QNH
hPa
Press
MSL
hPa
Rain since
9am
mm
Dir  Spd
km/h
Gust
km/h
Spd
kts
Gust
kts
27/11:30pm 7.8 3.9 1.0 62 2.8 S 11 15 6 8 1025.1 1024.5 0.0
27/11:00pm 7.8 3.5 1.2 63 2.8 S 13 17 7 9 1025.0 1024.4 0.0
27/10:30pm 8.1 3.5 1.3 62 2.9 SSW 15 19 8 10 1024.9 1024.3 0.0
27/10:00pm 8.2 3.5 1.1 61 3.0 SSW 15 17 8 9 1025.0 1024.4 0.0
27/09:30pm 8.8 3.8 1.2 59 3.2 SSW 17 24 9 13 1024.8 1024.2 0.0
27/09:00pm 9.3 4.3 1.5 58 3.3 SSW 17 22 9 12 1025.0 1024.4 0.0
27/08:30pm 9.6 6.1 1.5 57 3.5 SSW 9 17 5 9 1024.9 1024.3 0.0

Latest Capital City Observations: Canberra | Sydney | Melbourne | Brisbane | Adelaide | Perth | Hobart | Darwin

Other formats

Comma delimited format used in spreadsheet applications
http://www.bom.gov.au/fwo/IDQ60901/IDQ60901.95551.axf

JavaScript Object Notation format (JSON) in row-major order
http://www.bom.gov.au/fwo/IDQ60901/IDQ60901.95551.json

Data quality

Most of these data are generated automatically and are frequently updated. Quality checks on data are not normally performed. It is possible for incorrect values to appear. Refer to information at About Latest Weather Observations and please check the disclaimer before using these data.